Tinogasta, Argentina
Current Conditions -  °F | °C
As of 2:00 AM on Saturday 25 Oct 2014 (Local Time) from SANT Reporting Station
Clear Clear  
Wind Chill: 77°   Ceiling: Unl
Heat Index: 79°   Visibility: 6mi
Dew Point: 59°   Wind: 9mph
Humidity: 54%   Direction: 320°NW
Pressure: 29.91"   Gusts: NA
Location:  28.07°S, 67.56°W
Report Text: SANT 250500Z 32008KT CAVOK 25/15 Q1013
Loading
Personal Weather Stations






























Interactive Weather Map
Tropical Storm Tracking
New forecast layout! Learn more

10-Day Weather Forecast

Advertisements
Track Severe Weather on mobile